sensor_id;sensor_type;location;lat;lon;timestamp;pressure;altitude;pressure_sealevel;temperature;humidity
32109;BME280;18624;50.042;8.436;2023-02-19T00:01:46;100850.34;;;9.78;100.00
32109;BME280;18624;50.042;8.436;2023-02-19T00:04:19;100849.16;;;9.79;100.00
32109;BME280;18624;50.042;8.436;2023-02-19T00:06:47;100666.22;;;8.58;100.00
32109;BME280;18624;50.042;8.436;2023-02-19T00:09:15;100857.59;;;9.92;100.00
32109;BME280;18624;50.042;8.436;2023-02-19T00:11:42;100849.78;;;9.90;100.00
32109;BME280;18624;50.042;8.436;2023-02-19T00:14:09;100836.47;;;9.92;100.00
32109;BME280;18624;50.042;8.436;2023-02-19T00:16:39;100799.66;;;9.66;100.00
32109;BME280;18624;50.042;8.436;2023-02-19T00:19:07;100833.03;;;9.84;100.00
32109;BME280;18624;50.042;8.436;2023-02-19T00:21:39;100735.75;;;9.22;100.00
32109;BME280;18624;50.042;8.436;2023-02-19T00:24:06;100840.34;;;9.95;100.00
32109;BME280;18624;50.042;8.436;2023-02-19T00:26:33;100601.34;;;8.28;100.00
32109;BME280;18624;50.042;8.436;2023-02-19T00:29:00;100754.13;;;9.22;100.00
32109;BME280;18624;50.042;8.436;2023-02-19T00:31:29;100639.41;;;8.46;100.00
32109;BME280;18624;50.042;8.436;2023-02-19T00:34:03;100846.66;;;9.92;100.00
32109;BME280;18624;50.042;8.436;2023-02-19T00:36:31;100845.16;;;9.87;100.00
32109;BME280;18624;50.042;8.436;2023-02-19T00:38:58;100562.78;;;7.89;100.00
32109;BME280;18624;50.042;8.436;2023-02-19T00:41:24;100764.94;;;9.32;100.00
32109;BME280;18624;50.042;8.436;2023-02-19T00:44:02;100741.34;;;9.11;100.00
32109;BME280;18624;50.042;8.436;2023-02-19T00:46:37;100827.78;;;9.70;100.00
32109;BME280;18624;50.042;8.436;2023-02-19T00:49:06;100844.69;;;9.92;100.00
32109;BME280;18624;50.042;8.436;2023-02-19T00:51:35;100825.56;;;9.88;100.00
32109;BME280;18624;50.042;8.436;2023-02-19T00:54:04;100823.28;;;9.83;100.00
32109;BME280;18624;50.042;8.436;2023-02-19T00:56:30;100778.91;;;9.42;100.00
32109;BME280;18624;50.042;8.436;2023-02-19T00:58:57;100712.19;;;9.01;100.00
32109;BME280;18624;50.042;8.436;2023-02-19T01:01:23;100599.75;;;8.31;100.00
32109;BME280;18624;50.042;8.436;2023-02-19T01:03:50;100840.84;;;9.86;100.00
32109;BME280;18624;50.042;8.436;2023-02-19T01:06:18;100827.56;;;9.84;100.00
32109;BME280;18624;50.042;8.436;2023-02-19T01:08:45;100790.78;;;9.58;100.00
32109;BME280;18624;50.042;8.436;2023-02-19T01:11:12;100819.00;;;9.82;100.00
32109;BME280;18624;50.042;8.436;2023-02-19T01:13:39;100830.72;;;9.83;100.00
32109;BME280;18624;50.042;8.436;2023-02-19T01:16:11;100835.00;;;9.84;100.00
32109;BME280;18624;50.042;8.436;2023-02-19T01:18:38;100769.38;;;9.50;100.00
32109;BME280;18624;50.042;8.436;2023-02-19T01:21:06;100709.28;;;9.16;100.00
32109;BME280;18624;50.042;8.436;2023-02-19T01:23:34;100801.91;;;9.75;100.00
32109;BME280;18624;50.042;8.436;2023-02-19T01:26:10;100826.38;;;9.85;100.00
32109;BME280;18624;50.042;8.436;2023-02-19T01:28:37;100702.25;;;9.15;100.00
32109;BME280;18624;50.042;8.436;2023-02-19T01:31:05;100806.91;;;9.80;100.00
32109;BME280;18624;50.042;8.436;2023-02-19T01:33:33;100742.94;;;9.39;100.00
32109;BME280;18624;50.042;8.436;2023-02-19T01:36:04;100799.41;;;9.84;100.00
32109;BME280;18624;50.042;8.436;2023-02-19T01:38:32;100715.44;;;9.23;100.00
32109;BME280;18624;50.042;8.436;2023-02-19T01:41:01;100804.94;;;9.80;100.00
32109;BME280;18624;50.042;8.436;2023-02-19T01:43:28;100808.84;;;9.83;100.00
32109;BME280;18624;50.042;8.436;2023-02-19T01:45:54;100510.53;;;7.86;100.00
32109;BME280;18624;50.042;8.436;2023-02-19T01:48:35;100553.09;;;8.18;100.00
32109;BME280;18624;50.042;8.436;2023-02-19T01:51:10;100800.25;;;9.81;100.00
32109;BME280;18624;50.042;8.436;2023-02-19T01:53:41;100737.97;;;9.31;100.00
32109;BME280;18624;50.042;8.436;2023-02-19T01:56:09;100798.75;;;9.76;100.00
32109;BME280;18624;50.042;8.436;2023-02-19T01:58:36;100789.41;;;9.74;100.00
32109;BME280;18624;50.042;8.436;2023-02-19T02:01:05;100734.13;;;9.28;100.00
32109;BME280;18624;50.042;8.436;2023-02-19T02:03:33;100766.38;;;9.41;100.00
32109;BME280;18624;50.042;8.436;2023-02-19T02:06:08;100788.97;;;9.75;100.00
32109;BME280;18624;50.042;8.436;2023-02-19T02:08:37;100719.28;;;9.26;100.00
32109;BME280;18624;50.042;8.436;2023-02-19T02:11:23;100696.41;;;9.12;100.00
32109;BME280;18624;50.042;8.436;2023-02-19T02:13:50;100708.84;;;9.17;100.00
32109;BME280;18624;50.042;8.436;2023-02-19T02:19:13;100775.72;;;9.74;100.00
32109;BME280;18624;50.042;8.436;2023-02-19T02:22:22;100704.50;;;9.23;100.00
32109;BME280;18624;50.042;8.436;2023-02-19T02:25:19;100777.25;;;9.75;100.00
32109;BME280;18624;50.042;8.436;2023-02-19T02:30:36;100759.84;;;9.61;100.00
32109;BME280;18624;50.042;8.436;2023-02-19T02:33:16;100770.28;;;9.70;100.00
32109;BME280;18624;50.042;8.436;2023-02-19T02:35:50;100767.72;;;9.59;100.00
32109;BME280;18624;50.042;8.436;2023-02-19T02:38:21;100782.44;;;9.69;100.00
32109;BME280;18624;50.042;8.436;2023-02-19T02:40:51;100766.50;;;9.60;100.00
32109;BME280;18624;50.042;8.436;2023-02-19T02:43:17;100703.66;;;9.26;100.00
32109;BME280;18624;50.042;8.436;2023-02-19T02:45:44;100724.91;;;9.46;100.00
32109;BME280;18624;50.042;8.436;2023-02-19T02:48:33;100676.81;;;9.18;100.00
32109;BME280;18624;50.042;8.436;2023-02-19T02:54:06;100726.91;;;9.42;100.00
32109;BME280;18624;50.042;8.436;2023-02-19T02:56:55;100746.16;;;9.61;100.00
32109;BME280;18624;50.042;8.436;2023-02-19T02:59:27;100645.56;;;8.88;100.00
32109;BME280;18624;50.042;8.436;2023-02-19T03:02:00;100619.97;;;8.75;100.00
32109;BME280;18624;50.042;8.436;2023-02-19T03:07:38;100749.25;;;9.63;100.00
32109;BME280;18624;50.042;8.436;2023-02-19T03:10:12;100677.66;;;9.15;100.00
32109;BME280;18624;50.042;8.436;2023-02-19T03:12:40;100723.72;;;9.47;100.00
32109;BME280;18624;50.042;8.436;2023-02-19T03:15:32;100704.34;;;9.34;100.00
32109;BME280;18624;50.042;8.436;2023-02-19T03:18:18;100733.69;;;9.60;100.00
32109;BME280;18624;50.042;8.436;2023-02-19T03:21:06;100640.50;;;8.86;100.00
32109;BME280;18624;50.042;8.436;2023-02-19T03:23:33;100738.47;;;9.53;100.00
32109;BME280;18624;50.042;8.436;2023-02-19T03:26:20;100732.78;;;9.40;100.00
32109;BME280;18624;50.042;8.436;2023-02-19T03:28:51;100693.47;;;9.27;100.00
32109;BME280;18624;50.042;8.436;2023-02-19T03:31:41;100723.41;;;9.41;100.00
32109;BME280;18624;50.042;8.436;2023-02-19T03:34:11;100747.34;;;9.60;100.00
32109;BME280;18624;50.042;8.436;2023-02-19T03:36:43;100737.34;;;9.50;100.00
32109;BME280;18624;50.042;8.436;2023-02-19T03:39:14;100680.25;;;9.22;100.00
32109;BME280;18624;50.042;8.436;2023-02-19T03:41:58;100698.47;;;9.32;100.00
32109;BME280;18624;50.042;8.436;2023-02-19T03:44:45;100736.94;;;9.52;100.00
32109;BME280;18624;50.042;8.436;2023-02-19T03:47:26;100654.44;;;8.96;100.00
32109;BME280;18624;50.042;8.436;2023-02-19T03:49:59;100746.25;;;9.54;100.00
32109;BME280;18624;50.042;8.436;2023-02-19T03:55:47;100615.69;;;8.74;100.00
32109;BME280;18624;50.042;8.436;2023-02-19T04:00:54;100750.19;;;9.53;100.00
32109;BME280;18624;50.042;8.436;2023-02-19T04:03:38;100633.59;;;8.78;100.00
32109;BME280;18624;50.042;8.436;2023-02-19T04:06:11;100690.22;;;9.08;100.00
32109;BME280;18624;50.042;8.436;2023-02-19T04:08:43;100631.69;;;8.72;100.00
32109;BME280;18624;50.042;8.436;2023-02-19T04:11:14;100750.19;;;9.53;100.00
32109;BME280;18624;50.042;8.436;2023-02-19T04:13:47;100733.94;;;9.43;100.00
32109;BME280;18624;50.042;8.436;2023-02-19T04:16:19;100751.72;;;9.54;100.00
32109;BME280;18624;50.042;8.436;2023-02-19T04:18:50;100654.13;;;8.90;100.00
32109;BME280;18624;50.042;8.436;2023-02-19T04:21:18;100739.63;;;9.55;100.00
32109;BME280;18624;50.042;8.436;2023-02-19T04:23:46;100732.31;;;9.45;100.00
32109;BME280;18624;50.042;8.436;2023-02-19T04:26:14;100432.38;;;7.35;100.00
32109;BME280;18624;50.042;8.436;2023-02-19T04:28:41;100513.88;;;8.01;100.00
32109;BME280;18624;50.042;8.436;2023-02-19T04:31:09;100512.88;;;7.88;100.00
32109;BME280;18624;50.042;8.436;2023-02-19T04:33:37;100680.00;;;9.12;100.00
32109;BME280;18624;50.042;8.436;2023-02-19T04:36:03;100753.94;;;9.63;100.00
32109;BME280;18624;50.042;8.436;2023-02-19T04:38:30;100644.78;;;8.87;100.00
32109;BME280;18624;50.042;8.436;2023-02-19T04:40:56;100693.28;;;9.14;100.00
32109;BME280;18624;50.042;8.436;2023-02-19T04:43:23;100673.94;;;8.98;100.00
32109;BME280;18624;50.042;8.436;2023-02-19T04:45:49;100690.97;;;9.09;100.00
32109;BME280;18624;50.042;8.436;2023-02-19T04:48:15;100781.81;;;9.54;100.00
32109;BME280;18624;50.042;8.436;2023-02-19T04:50:42;100553.28;;;8.00;100.00
32109;BME280;18624;50.042;8.436;2023-02-19T04:53:08;100756.00;;;9.28;100.00
32109;BME280;18624;50.042;8.436;2023-02-19T04:55:36;100733.97;;;9.08;100.00
32109;BME280;18624;50.042;8.436;2023-02-19T04:58:03;100792.88;;;9.47;100.00
32109;BME280;18624;50.042;8.436;2023-02-19T05:00:30;100637.41;;;8.50;100.00
32109;BME280;18624;50.042;8.436;2023-02-19T05:02:59;100578.72;;;7.94;100.00
32109;BME280;18624;50.042;8.436;2023-02-19T05:05:26;100685.31;;;8.62;100.00
32109;BME280;18624;50.042;8.436;2023-02-19T05:07:52;100796.94;;;9.35;100.00
32109;BME280;18624;50.042;8.436;2023-02-19T05:10:19;100710.78;;;8.86;100.00
32109;BME280;18624;50.042;8.436;2023-02-19T05:12:45;100483.00;;;7.32;100.00
32109;BME280;18624;50.042;8.436;2023-02-19T05:15:12;100731.47;;;8.87;100.00
32109;BME280;18624;50.042;8.436;2023-02-19T05:17:38;100799.59;;;9.43;100.00
32109;BME280;18624;50.042;8.436;2023-02-19T05:20:05;100613.59;;;8.13;100.00
32109;BME280;18624;50.042;8.436;2023-02-19T05:22:31;100737.59;;;8.98;100.00
32109;BME280;18624;50.042;8.436;2023-02-19T05:24:58;100773.28;;;9.18;100.00
32109;BME280;18624;50.042;8.436;2023-02-19T05:27:24;100739.19;;;8.96;100.00
32109;BME280;18624;50.042;8.436;2023-02-19T05:29:51;100751.72;;;8.93;100.00
32109;BME280;18624;50.042;8.436;2023-02-19T05:32:17;100822.22;;;9.47;100.00
32109;BME280;18624;50.042;8.436;2023-02-19T05:34:43;100742.84;;;8.82;100.00
32109;BME280;18624;50.042;8.436;2023-02-19T05:37:11;100373.09;;;6.56;100.00
32109;BME280;18624;50.042;8.436;2023-02-19T05:39:37;100611.31;;;8.08;100.00
32109;BME280;18624;50.042;8.436;2023-02-19T05:42:04;100826.94;;;9.43;100.00
32109;BME280;18624;50.042;8.436;2023-02-19T05:44:30;100776.03;;;9.18;100.00
32109;BME280;18624;50.042;8.436;2023-02-19T05:46:56;100800.91;;;9.31;100.00
32109;BME280;18624;50.042;8.436;2023-02-19T05:49:23;100815.22;;;9.42;100.00
32109;BME280;18624;50.042;8.436;2023-02-19T05:51:50;100510.69;;;7.31;100.00
32109;BME280;18624;50.042;8.436;2023-02-19T05:54:16;100676.06;;;8.49;100.00
32109;BME280;18624;50.042;8.436;2023-02-19T05:56:43;100770.69;;;9.07;100.00
32109;BME280;18624;50.042;8.436;2023-02-19T05:59:20;100826.06;;;9.49;100.00
32109;BME280;18624;50.042;8.436;2023-02-19T06:01:49;100759.22;;;8.85;100.00
32109;BME280;18624;50.042;8.436;2023-02-19T06:04:16;100843.69;;;9.48;100.00
32109;BME280;18624;50.042;8.436;2023-02-19T06:06:45;100845.41;;;9.35;100.00
32109;BME280;18624;50.042;8.436;2023-02-19T06:09:11;100799.56;;;9.12;100.00
32109;BME280;18624;50.042;8.436;2023-02-19T06:11:38;100747.69;;;8.67;100.00
32109;BME280;18624;50.042;8.436;2023-02-19T06:14:05;100825.22;;;9.22;100.00
32109;BME280;18624;50.042;8.436;2023-02-19T06:16:32;100842.63;;;9.38;100.00
32109;BME280;18624;50.042;8.436;2023-02-19T06:19:03;100844.59;;;9.38;100.00
32109;BME280;18624;50.042;8.436;2023-02-19T06:21:29;100726.69;;;8.60;100.00
32109;BME280;18624;50.042;8.436;2023-02-19T06:23:56;100614.25;;;7.86;100.00
32109;BME280;18624;50.042;8.436;2023-02-19T06:26:23;100867.22;;;9.42;100.00
32109;BME280;18624;50.042;8.436;2023-02-19T06:28:51;100842.16;;;9.09;100.00
32109;BME280;18624;50.042;8.436;2023-02-19T06:31:19;100662.47;;;8.00;100.00
32109;BME280;18624;50.042;8.436;2023-02-19T06:33:47;100837.03;;;9.15;100.00
32109;BME280;18624;50.042;8.436;2023-02-19T06:36:18;100878.63;;;9.37;100.00
32109;BME280;18624;50.042;8.436;2023-02-19T06:38:45;100787.88;;;8.70;100.00
32109;BME280;18624;50.042;8.436;2023-02-19T06:41:12;100807.66;;;8.85;100.00
32109;BME280;18624;50.042;8.436;2023-02-19T06:43:39;100848.47;;;9.03;100.00
32109;BME280;18624;50.042;8.436;2023-02-19T06:46:06;100804.63;;;8.76;100.00
32109;BME280;18624;50.042;8.436;2023-02-19T06:48:33;100892.69;;;9.35;100.00
32109;BME280;18624;50.042;8.436;2023-02-19T06:51:00;100883.06;;;9.24;100.00
32109;BME280;18624;50.042;8.436;2023-02-19T06:53:26;100883.06;;;9.20;100.00
32109;BME280;18624;50.042;8.436;2023-02-19T06:56:06;100907.59;;;9.27;100.00
32109;BME280;18624;50.042;8.436;2023-02-19T06:58:33;100831.66;;;8.67;100.00
32109;BME280;18624;50.042;8.436;2023-02-19T07:01:00;100891.31;;;9.17;100.00
32109;BME280;18624;50.042;8.436;2023-02-19T07:03:27;100830.72;;;8.80;100.00
32109;BME280;18624;50.042;8.436;2023-02-19T07:05:53;100871.44;;;9.12;100.00
32109;BME280;18624;50.042;8.436;2023-02-19T07:08:20;100897.88;;;9.23;100.00
32109;BME280;18624;50.042;8.436;2023-02-19T07:10:56;100914.56;;;9.35;100.00
32109;BME280;18624;50.042;8.436;2023-02-19T07:13:24;100870.31;;;9.10;100.00
32109;BME280;18624;50.042;8.436;2023-02-19T07:15:58;100887.06;;;9.12;100.00
32109;BME280;18624;50.042;8.436;2023-02-19T07:18:26;100810.88;;;8.73;100.00
32109;BME280;18624;50.042;8.436;2023-02-19T07:20:52;100904.53;;;9.22;100.00
32109;BME280;18624;50.042;8.436;2023-02-19T07:23:19;100922.69;;;9.46;100.00
32109;BME280;18624;50.042;8.436;2023-02-19T07:25:45;100918.84;;;9.36;100.00
32109;BME280;18624;50.042;8.436;2023-02-19T07:28:12;100928.16;;;9.46;100.00
32109;BME280;18624;50.042;8.436;2023-02-19T07:30:38;100818.72;;;8.71;100.00
32109;BME280;18624;50.042;8.436;2023-02-19T07:33:04;100900.25;;;9.21;100.00
32109;BME280;18624;50.042;8.436;2023-02-19T07:35:34;100943.69;;;9.53;100.00
32109;BME280;18624;50.042;8.436;2023-02-19T07:38:00;100844.03;;;8.78;100.00
32109;BME280;18624;50.042;8.436;2023-02-19T07:40:27;100614.69;;;7.29;100.00
32109;BME280;18624;50.042;8.436;2023-02-19T07:42:53;100959.78;;;9.47;100.00
32109;BME280;18624;50.042;8.436;2023-02-19T07:45:19;100861.88;;;8.90;100.00
32109;BME280;18624;50.042;8.436;2023-02-19T07:47:46;100735.38;;;8.03;100.00
32109;BME280;18624;50.042;8.436;2023-02-19T07:50:12;100869.34;;;8.82;100.00
32109;BME280;18624;50.042;8.436;2023-02-19T07:52:39;100943.44;;;9.40;100.00
32109;BME280;18624;50.042;8.436;2023-02-19T07:55:05;100939.97;;;9.36;100.00
32109;BME280;18624;50.042;8.436;2023-02-19T07:57:32;100910.97;;;9.04;100.00
32109;BME280;18624;50.042;8.436;2023-02-19T07:59:58;100815.28;;;8.63;100.00
32109;BME280;18624;50.042;8.436;2023-02-19T08:02:25;100830.47;;;8.68;100.00
32109;BME280;18624;50.042;8.436;2023-02-19T08:05:10;100950.09;;;9.39;100.00
32109;BME280;18624;50.042;8.436;2023-02-19T08:07:36;100976.09;;;9.58;100.00
32109;BME280;18624;50.042;8.436;2023-02-19T08:10:04;100998.66;;;9.73;100.00
32109;BME280;18624;50.042;8.436;2023-02-19T08:12:59;100959.06;;;9.43;100.00
32109;BME280;18624;50.042;8.436;2023-02-19T08:15:45;100946.25;;;9.33;100.00
32109;BME280;18624;50.042;8.436;2023-02-19T08:18:13;101018.94;;;9.75;100.00
32109;BME280;18624;50.042;8.436;2023-02-19T08:20:40;100950.56;;;9.30;100.00
32109;BME280;18624;50.042;8.436;2023-02-19T08:23:07;100915.75;;;8.93;100.00
32109;BME280;18624;50.042;8.436;2023-02-19T08:25:33;101002.72;;;9.54;100.00
32109;BME280;18624;50.042;8.436;2023-02-19T08:28:00;100906.94;;;8.75;100.00
32109;BME280;18624;50.042;8.436;2023-02-19T08:30:28;100982.25;;;9.28;100.00
32109;BME280;18624;50.042;8.436;2023-02-19T08:32:57;101007.13;;;9.41;100.00
32109;BME280;18624;50.042;8.436;2023-02-19T08:35:27;101053.78;;;9.71;100.00
32109;BME280;18624;50.042;8.436;2023-02-19T08:37:57;101069.38;;;9.78;100.00
32109;BME280;18624;50.042;8.436;2023-02-19T08:40:24;101049.94;;;9.65;100.00
32109;BME280;18624;50.042;8.436;2023-02-19T08:42:51;100842.88;;;8.24;100.00
32109;BME280;18624;50.042;8.436;2023-02-19T08:45:18;101033.22;;;9.56;100.00
32109;BME280;18624;50.042;8.436;2023-02-19T08:47:45;101015.78;;;9.35;100.00
32109;BME280;18624;50.042;8.436;2023-02-19T08:50:11;101070.19;;;9.75;100.00
32109;BME280;18624;50.042;8.436;2023-02-19T08:52:38;101029.75;;;9.48;100.00
32109;BME280;18624;50.042;8.436;2023-02-19T08:55:05;101080.97;;;9.89;100.00
32109;BME280;18624;50.042;8.436;2023-02-19T08:57:34;101039.75;;;9.66;100.00
32109;BME280;18624;50.042;8.436;2023-02-19T09:00:00;101037.31;;;9.75;100.00
32109;BME280;18624;50.042;8.436;2023-02-19T09:02:27;100839.69;;;8.32;100.00
32109;BME280;18624;50.042;8.436;2023-02-19T09:04:54;100984.84;;;9.46;100.00
32109;BME280;18624;50.042;8.436;2023-02-19T09:07:20;100991.00;;;9.53;100.00
32109;BME280;18624;50.042;8.436;2023-02-19T09:09:48;100972.38;;;9.41;100.00
32109;BME280;18624;50.042;8.436;2023-02-19T09:12:14;101058.25;;;9.96;100.00
32109;BME280;18624;50.042;8.436;2023-02-19T09:14:41;101060.16;;;9.99;100.00
32109;BME280;18624;50.042;8.436;2023-02-19T09:17:07;101087.78;;;10.11;100.00
32109;BME280;18624;50.042;8.436;2023-02-19T09:19:34;100904.56;;;8.77;100.00
32109;BME280;18624;50.042;8.436;2023-02-19T09:22:02;101000.50;;;9.42;100.00
32109;BME280;18624;50.042;8.436;2023-02-19T09:24:28;100936.09;;;8.92;100.00
32109;BME280;18624;50.042;8.436;2023-02-19T09:26:55;101065.78;;;9.84;100.00
32109;BME280;18624;50.042;8.436;2023-02-19T09:29:26;101107.78;;;10.08;100.00
32109;BME280;18624;50.042;8.436;2023-02-19T09:31:56;101050.44;;;9.90;100.00
32109;BME280;18624;50.042;8.436;2023-02-19T09:34:24;100999.22;;;9.53;100.00
32109;BME280;18624;50.042;8.436;2023-02-19T09:36:51;100835.00;;;8.36;100.00
32109;BME280;18624;50.042;8.436;2023-02-19T09:39:18;101103.72;;;10.24;100.00
32109;BME280;18624;50.042;8.436;2023-02-19T09:41:48;100806.69;;;8.12;100.00
32109;BME280;18624;50.042;8.436;2023-02-19T09:44:23;101112.31;;;10.26;100.00
32109;BME280;18624;50.042;8.436;2023-02-19T09:46:51;101103.78;;;10.17;100.00
32109;BME280;18624;50.042;8.436;2023-02-19T09:49:26;101069.56;;;9.98;100.00
32109;BME280;18624;50.042;8.436;2023-02-19T09:51:57;101073.06;;;9.98;100.00
32109;BME280;18624;50.042;8.436;2023-02-19T09:54:27;100830.31;;;8.37;100.00
32109;BME280;18624;50.042;8.436;2023-02-19T09:56:57;101061.53;;;9.80;100.00
32109;BME280;18624;50.042;8.436;2023-02-19T09:59:35;101084.78;;;9.99;100.00
32109;BME280;18624;50.042;8.436;2023-02-19T10:02:18;100976.88;;;9.17;100.00
32109;BME280;18624;50.042;8.436;2023-02-19T10:04:47;100922.47;;;8.85;100.00
32109;BME280;18624;50.042;8.436;2023-02-19T10:07:17;100857.25;;;8.31;100.00
32109;BME280;18624;50.042;8.436;2023-02-19T10:09:49;100866.22;;;8.39;100.00
32109;BME280;18624;50.042;8.436;2023-02-19T10:12:30;101106.03;;;9.87;100.00
32109;BME280;18624;50.042;8.436;2023-02-19T10:17:53;100919.09;;;8.67;100.00
32109;BME280;18624;50.042;8.436;2023-02-19T10:20:21;101017.88;;;9.21;100.00
32109;BME280;18624;50.042;8.436;2023-02-19T10:23:04;101029.09;;;9.33;100.00
32109;BME280;18624;50.042;8.436;2023-02-19T10:25:32;100949.03;;;8.81;100.00
32109;BME280;18624;50.042;8.436;2023-02-19T10:28:00;101069.31;;;9.36;100.00
32109;BME280;18624;50.042;8.436;2023-02-19T10:30:31;100958.53;;;8.69;100.00
32109;BME280;18624;50.042;8.436;2023-02-19T10:33:01;101122.16;;;9.78;100.00
32109;BME280;18624;50.042;8.436;2023-02-19T10:35:29;101149.97;;;9.73;100.00
32109;BME280;18624;50.042;8.436;2023-02-19T10:37:56;101093.50;;;9.45;100.00
32109;BME280;18624;50.042;8.436;2023-02-19T10:40:27;101064.03;;;9.15;100.00
32109;BME280;18624;50.042;8.436;2023-02-19T10:43:02;101097.50;;;9.33;100.00
32109;BME280;18624;50.042;8.436;2023-02-19T10:45:44;101214.25;;;10.06;100.00
32109;BME280;18624;50.042;8.436;2023-02-19T10:48:22;101179.66;;;9.78;100.00
32109;BME280;18624;50.042;8.436;2023-02-19T10:50:54;101204.84;;;10.04;100.00
32109;BME280;18624;50.042;8.436;2023-02-19T10:53:35;101203.78;;;9.94;100.00
32109;BME280;18624;50.042;8.436;2023-02-19T10:56:12;101094.88;;;9.19;100.00
32109;BME280;18624;50.042;8.436;2023-02-19T10:58:39;101212.75;;;9.95;100.00
32109;BME280;18624;50.042;8.436;2023-02-19T11:01:14;101226.75;;;10.07;100.00
32109;BME280;18624;50.042;8.436;2023-02-19T11:03:41;101227.13;;;10.09;100.00
32109;BME280;18624;50.042;8.436;2023-02-19T11:06:09;101232.94;;;10.15;100.00
32109;BME280;18624;50.042;8.436;2023-02-19T11:08:52;100930.25;;;8.24;100.00
32109;BME280;18624;50.042;8.436;2023-02-19T11:11:25;101012.69;;;8.81;100.00
32109;BME280;18624;50.042;8.436;2023-02-19T11:13:54;101186.97;;;9.96;100.00
32109;BME280;18624;50.042;8.436;2023-02-19T11:16:37;101158.00;;;9.95;100.00
32109;BME280;18624;50.042;8.436;2023-02-19T11:19:04;101195.38;;;10.15;100.00
32109;BME280;18624;50.042;8.436;2023-02-19T11:21:30;101201.19;;;10.21;100.00
32109;BME280;18624;50.042;8.436;2023-02-19T11:24:01;101088.31;;;9.54;100.00
32109;BME280;18624;50.042;8.436;2023-02-19T11:26:32;101104.25;;;9.70;100.00
32109;BME280;18624;50.042;8.436;2023-02-19T11:29:18;101222.25;;;10.73;100.00
32109;BME280;18624;50.042;8.436;2023-02-19T11:31:47;101210.63;;;10.58;100.00
32109;BME280;18624;50.042;8.436;2023-02-19T11:37:08;100993.00;;;9.04;100.00
32109;BME280;18624;50.042;8.436;2023-02-19T11:39:35;100932.19;;;8.90;100.00
32109;BME280;18624;50.042;8.436;2023-02-19T11:42:18;101227.25;;;10.81;100.00
32109;BME280;18624;50.042;8.436;2023-02-19T11:45:09;101181.47;;;10.41;100.00
32109;BME280;18624;50.042;8.436;2023-02-19T11:48:00;101206.38;;;10.53;100.00
32109;BME280;18624;50.042;8.436;2023-02-19T11:53:33;101264.19;;;10.70;100.00
32109;BME280;18624;50.042;8.436;2023-02-19T11:56:18;101254.84;;;10.63;100.00
32109;BME280;18624;50.042;8.436;2023-02-19T11:58:58;101192.56;;;10.23;100.00
32109;BME280;18624;50.042;8.436;2023-02-19T12:01:53;101229.50;;;10.52;100.00
32109;BME280;18624;50.042;8.436;2023-02-19T12:10:02;101137.59;;;9.99;100.00
32109;BME280;18624;50.042;8.436;2023-02-19T12:12:42;101229.34;;;10.67;100.00
32109;BME280;18624;50.042;8.436;2023-02-19T12:23:42;101140.13;;;10.24;100.00
32109;BME280;18624;50.042;8.436;2023-02-19T12:26:27;101240.03;;;10.92;100.00
32109;BME280;18624;50.042;8.436;2023-02-19T12:40:11;101249.13;;;10.85;100.00
32109;BME280;18624;50.042;8.436;2023-02-19T12:42:53;101257.34;;;10.85;100.00
32109;BME280;18624;50.042;8.436;2023-02-19T12:45:43;101191.88;;;10.56;100.00
32109;BME280;18624;50.042;8.436;2023-02-19T12:48:26;101234.56;;;10.92;100.00
32109;BME280;18624;50.042;8.436;2023-02-19T12:50:58;101176.16;;;10.60;100.00
32109;BME280;18624;50.042;8.436;2023-02-19T12:58:58;101156.69;;;10.51;100.00
32109;BME280;18624;50.042;8.436;2023-02-19T13:01:32;100909.06;;;9.01;100.00
32109;BME280;18624;50.042;8.436;2023-02-19T13:04:23;101219.91;;;11.05;100.00
32109;BME280;18624;50.042;8.436;2023-02-19T13:07:05;101149.94;;;10.59;100.00
32109;BME280;18624;50.042;8.436;2023-02-19T13:09:42;101149.19;;;10.55;100.00
32109;BME280;18624;50.042;8.436;2023-02-19T13:12:26;101125.63;;;10.24;100.00
32109;BME280;18624;50.042;8.436;2023-02-19T13:15:03;101213.81;;;10.90;100.00
32109;BME280;18624;50.042;8.436;2023-02-19T13:17:49;101222.84;;;10.87;100.00
32109;BME280;18624;50.042;8.436;2023-02-19T13:20:29;101223.72;;;10.81;100.00
32109;BME280;18624;50.042;8.436;2023-02-19T13:23:10;101179.50;;;10.41;100.00
32109;BME280;18624;50.042;8.436;2023-02-19T13:26:07;101229.75;;;10.65;100.00
32109;BME280;18624;50.042;8.436;2023-02-19T13:31:43;101096.81;;;9.71;100.00
32109;BME280;18624;50.042;8.436;2023-02-19T13:34:19;101232.97;;;10.56;100.00
32109;BME280;18624;50.042;8.436;2023-02-19T13:36:48;101076.59;;;9.54;100.00
32109;BME280;18624;50.042;8.436;2023-02-19T13:39:15;101007.91;;;8.96;100.00
32109;BME280;18624;50.042;8.436;2023-02-19T13:41:51;101212.41;;;10.37;100.00
32109;BME280;18624;50.042;8.436;2023-02-19T13:44:20;101242.13;;;10.43;100.00
32109;BME280;18624;50.042;8.436;2023-02-19T13:46:49;101172.81;;;10.01;100.00
32109;BME280;18624;50.042;8.436;2023-02-19T13:49:22;101244.53;;;10.37;100.00
32109;BME280;18624;50.042;8.436;2023-02-19T13:51:51;101123.53;;;9.52;100.00
32109;BME280;18624;50.042;8.436;2023-02-19T13:54:32;101182.31;;;9.85;100.00
32109;BME280;18624;50.042;8.436;2023-02-19T13:59:43;101096.44;;;9.17;100.00
32109;BME280;18624;50.042;8.436;2023-02-19T14:04:54;101242.78;;;10.09;100.00
32109;BME280;18624;50.042;8.436;2023-02-19T14:09:51;101177.94;;;9.43;100.00
32109;BME280;18624;50.042;8.436;2023-02-19T14:12:20;101256.50;;;10.05;100.00
32109;BME280;18624;50.042;8.436;2023-02-19T14:14:51;101268.97;;;10.13;100.00
32109;BME280;18624;50.042;8.436;2023-02-19T14:17:43;101272.50;;;10.10;100.00